Time;durP1;ratioP1;P1;durP2;ratioP2;P2;SDS_P1;SDS_P2;PMS_P1;PMS_P2;Temp;Humidity;BMP_temperature;BMP_pressure;BME280_temperature;BME280_humidity;BME280_pressure;Samples;Min_cycle;Max_cycle;Signal;HPM_P1;HPM_P2
2021/05/18 00:00:42;;;;;;;0.00;0.00;;;10.40;99.90;;;;;;5007981;28;20927;-69
2021/05/18 00:03:11;;;;;;;0.30;0.30;;;10.30;99.90;;;;;;5007898;28;20675;-71
2021/05/18 00:05:40;;;;;;;0.00;0.00;;;10.30;99.90;;;;;;5000881;28;20416;-71
2021/05/18 00:08:09;;;;;;;0.20;0.20;;;10.30;99.90;;;;;;5003073;28;20197;-71
2021/05/18 00:13:23;;;;;;;0.20;0.20;;;10.30;99.90;;;;;;5003004;28;20211;-72
2021/05/18 00:15:52;;;;;;;0.57;0.57;;;10.30;99.90;;;;;;5001181;28;20208;-71
2021/05/18 00:18:19;;;;;;;0.00;0.00;;;10.30;99.90;;;;;;5000091;28;20754;-69
2021/05/18 00:20:46;;;;;;;0.50;0.10;;;10.20;99.90;;;;;;5001997;28;20201;-69
2021/05/18 00:23:13;;;;;;;0.47;0.47;;;10.20;99.90;;;;;;5001302;28;20205;-68
2021/05/18 00:25:41;;;;;;;0.00;0.00;;;10.20;99.90;;;;;;5002501;28;20201;-71
2021/05/18 00:28:08;;;;;;;2.37;0.63;;;10.30;99.90;;;;;;5005214;28;20201;-68
2021/05/18 00:30:34;;;;;;;0.20;0.20;;;10.30;99.90;;;;;;5005054;28;20260;-69
2021/05/18 00:33:04;;;;;;;0.40;0.10;;;10.30;99.90;;;;;;4999967;28;20209;-69
2021/05/18 00:35:32;;;;;;;0.47;0.10;;;10.30;99.90;;;;;;5004350;28;20272;-68
2021/05/18 00:37:58;;;;;;;0.73;0.73;;;10.40;99.90;;;;;;5004601;28;20205;-68
2021/05/18 00:40:25;;;;;;;0.50;0.50;;;10.40;99.90;;;;;;5002973;28;20217;-70
2021/05/18 00:42:54;;;;;;;0.00;0.00;;;10.40;99.90;;;;;;5004344;28;20227;-71
2021/05/18 00:45:28;;;;;;;0.07;0.07;;;10.40;99.90;;;;;;4997112;28;20717;-68
2021/05/18 00:47:54;;;;;;;1.13;1.10;;;10.30;99.90;;;;;;4998783;28;21057;-70
2021/05/18 00:50:21;;;;;;;0.40;0.40;;;10.30;99.90;;;;;;5003382;28;20196;-68
2021/05/18 00:52:48;;;;;;;0.77;0.43;;;10.30;99.90;;;;;;5002444;28;20212;-69
2021/05/18 00:55:22;;;;;;;0.00;0.00;;;10.30;99.90;;;;;;5000341;28;21045;-70
2021/05/18 01:00:35;;;;;;;0.00;0.00;;;10.40;99.90;;;;;;4999435;28;20251;-70
2021/05/18 01:03:02;;;;;;;0.10;0.10;;;10.50;99.90;;;;;;5001022;28;20228;-69
2021/05/18 01:08:14;;;;;;;0.17;0.17;;;10.60;99.90;;;;;;4999325;28;20235;-68
2021/05/18 01:10:41;;;;;;;0.10;0.10;;;10.60;99.90;;;;;;5001645;28;20197;-69
2021/05/18 01:13:08;;;;;;;0.73;0.73;;;10.60;99.90;;;;;;4998657;28;20275;-69
2021/05/18 01:15:35;;;;;;;0.33;0.33;;;10.60;99.90;;;;;;5000145;28;20208;-68
2021/05/18 01:18:02;;;;;;;1.03;1.03;;;10.50;99.90;;;;;;5002564;28;20610;-70
2021/05/18 01:20:28;;;;;;;0.10;0.10;;;10.40;99.90;;;;;;5002458;28;20291;-69
2021/05/18 01:22:56;;;;;;;0.40;0.40;;;10.40;99.90;;;;;;4997161;28;20470;-70
2021/05/18 01:25:22;;;;;;;0.63;0.63;;;10.30;99.90;;;;;;4996929;28;20205;-71
2021/05/18 01:27:49;;;;;;;0.00;0.00;;;10.20;99.90;;;;;;4999965;28;20991;-69
2021/05/18 01:30:17;;;;;;;0.00;0.00;;;10.10;99.90;;;;;;5001534;28;20232;-69
2021/05/18 01:32:43;;;;;;;0.00;0.00;;;10.00;99.90;;;;;;5000294;28;20209;-70
2021/05/18 01:35:11;;;;;;;1.90;0.50;;;9.90;99.90;;;;;;4998654;28;20604;-70
2021/05/18 01:37:38;;;;;;;0.00;0.00;;;9.80;99.90;;;;;;4999087;28;20201;-71
2021/05/18 01:40:16;;;;;;;0.00;0.00;;;9.70;99.90;;;;;;5000656;28;20205;-71
2021/05/18 01:42:47;;;;;;;0.10;0.10;;;9.70;99.90;;;;;;4999721;28;20233;-70
2021/05/18 01:45:18;;;;;;;0.20;0.20;;;9.60;99.90;;;;;;4996808;28;20223;-70
2021/05/18 01:47:50;;;;;;;0.00;0.00;;;9.60;99.90;;;;;;4991366;28;20258;-70
2021/05/18 01:50:18;;;;;;;0.00;0.00;;;9.60;99.90;;;;;;4999161;28;20208;-70
2021/05/18 01:52:44;;;;;;;0.00;0.00;;;9.60;99.90;;;;;;5001068;28;20202;-69
2021/05/18 01:55:16;;;;;;;0.00;0.00;;;9.70;99.90;;;;;;4998788;28;20220;-70
2021/05/18 01:57:43;;;;;;;0.30;0.30;;;9.70;99.90;;;;;;4993921;28;20205;-70
2021/05/18 02:00:14;;;;;;;1.00;1.00;;;9.80;99.90;;;;;;5023427;28;20258;-72
2021/05/18 02:02:41;;;;;;;0.73;0.73;;;9.80;99.90;;;;;;5006561;28;20224;-71
2021/05/18 02:05:11;;;;;;;0.10;0.10;;;9.90;99.90;;;;;;5005425;28;20201;-70
2021/05/18 02:07:39;;;;;;;0.00;0.00;;;9.90;99.90;;;;;;5005325;28;20204;-71
2021/05/18 02:10:08;;;;;;;0.20;0.20;;;9.90;99.90;;;;;;5012023;28;20209;-71
2021/05/18 02:12:35;;;;;;;0.00;0.00;;;10.00;99.90;;;;;;5006112;28;20258;-71
2021/05/18 02:15:09;;;;;;;0.73;0.73;;;10.00;99.90;;;;;;5006932;28;20205;-71
2021/05/18 02:17:39;;;;;;;0.00;0.00;;;10.00;99.90;;;;;;5006411;28;20231;-70
2021/05/18 02:20:15;;;;;;;0.00;0.00;;;10.10;99.90;;;;;;5006714;28;20204;-70
2021/05/18 02:25:28;;;;;;;0.00;0.00;;;10.10;99.90;;;;;;5005488;28;20375;-69
2021/05/18 02:27:57;;;;;;;0.90;0.47;;;10.10;99.90;;;;;;5005247;28;20216;-70
2021/05/18 02:30:24;;;;;;;0.03;0.03;;;10.10;99.90;;;;;;5007249;28;20630;-70
2021/05/18 02:32:52;;;;;;;0.17;0.17;;;10.10;99.90;;;;;;5006019;28;20208;-70
2021/05/18 02:35:19;;;;;;;0.20;0.20;;;10.20;99.90;;;;;;5003191;28;20724;-72
2021/05/18 02:37:47;;;;;;;0.07;0.07;;;10.20;99.90;;;;;;5004546;28;20206;-69
2021/05/18 02:40:18;;;;;;;0.83;0.83;;;10.20;99.90;;;;;;5005503;28;20201;-72
2021/05/18 02:42:44;;;;;;;0.00;0.00;;;10.20;99.90;;;;;;5006472;28;20216;-70
2021/05/18 02:45:17;;;;;;;0.00;0.00;;;10.20;99.90;;;;;;5005770;28;20292;-69
2021/05/18 02:50:29;;;;;;;0.00;0.00;;;10.20;99.90;;;;;;5002397;28;20220;-69
2021/05/18 02:52:55;;;;;;;0.00;0.00;;;10.10;99.90;;;;;;5002208;28;20241;-70
2021/05/18 02:55:26;;;;;;;0.00;0.00;;;10.20;99.90;;;;;;5000054;28;20220;-71
2021/05/18 02:57:53;;;;;;;0.00;0.00;;;10.10;99.90;;;;;;5002367;28;20196;-70
2021/05/18 03:00:23;;;;;;;0.13;0.13;;;10.10;99.90;;;;;;5005750;28;20231;-70
2021/05/18 03:02:51;;;;;;;0.23;0.23;;;10.10;99.90;;;;;;5003267;28;20224;-71
2021/05/18 03:05:18;;;;;;;0.00;0.00;;;10.10;99.90;;;;;;5004522;28;20223;-70
2021/05/18 03:07:45;;;;;;;0.53;0.17;;;10.10;99.90;;;;;;5004956;28;20197;-71
2021/05/18 03:10:13;;;;;;;0.27;0.10;;;10.10;99.90;;;;;;5005076;28;20279;-71
2021/05/18 03:12:39;;;;;;;0.03;0.03;;;10.10;99.90;;;;;;5005674;28;20205;-69
2021/05/18 03:15:07;;;;;;;0.10;0.10;;;10.10;99.90;;;;;;5003781;28;20204;-71
2021/05/18 03:17:36;;;;;;;1.40;1.30;;;10.00;99.90;;;;;;5003889;28;20208;-71
2021/05/18 03:20:04;;;;;;;0.00;0.00;;;10.00;99.90;;;;;;5004570;28;20212;-71
2021/05/18 03:22:31;;;;;;;0.13;0.13;;;10.00;99.90;;;;;;5005757;28;20232;-71
2021/05/18 03:24:57;;;;;;;0.73;0.50;;;10.00;99.90;;;;;;5005968;28;20204;-69
2021/05/18 03:27:26;;;;;;;0.00;0.00;;;10.00;99.90;;;;;;5003683;28;20201;-69
2021/05/18 03:29:52;;;;;;;0.10;0.10;;;10.00;99.90;;;;;;5002696;28;20224;-71
2021/05/18 03:35:06;;;;;;;0.00;0.00;;;10.00;99.90;;;;;;5005253;28;20212;-71
2021/05/18 03:37:42;;;;;;;0.00;0.00;;;9.90;99.90;;;;;;5002229;28;20197;-71
2021/05/18 03:40:12;;;;;;;0.00;0.00;;;9.90;99.90;;;;;;5004057;28;20208;-69
2021/05/18 03:42:41;;;;;;;0.00;0.00;;;9.80;99.90;;;;;;5004298;28;20228;-70
2021/05/18 03:45:16;;;;;;;0.00;0.00;;;9.80;99.90;;;;;;5004686;28;20201;-71
2021/05/18 04:04:21;;;;;;;0.00;0.00;;;9.30;99.90;;;;;;5004931;28;20463;-71
2021/05/18 04:12:44;;;;;;;0.00;0.00;;;9.10;99.90;;;;;;5005444;28;20275;-70
2021/05/18 04:18:11;;;;;;;0.00;0.00;;;9.00;99.90;;;;;;4942327;28;20206;-68
2021/05/18 04:20:49;;;;;;;0.00;0.00;;;9.00;99.90;;;;;;4989229;28;20209;-69
2021/05/18 04:23:31;;;;;;;0.00;0.00;;;9.00;99.90;;;;;;5004643;28;20224;-69
2021/05/18 04:51:02;;;;;;;0.50;0.50;;;9.70;99.90;;;;;;5003992;28;20185;-68
2021/05/18 04:53:35;;;;;;;0.30;0.30;;;9.80;99.90;;;;;;5004513;28;20993;-70
2021/05/18 04:59:04;;;;;;;0.33;0.33;;;10.00;99.90;;;;;;5003631;28;20329;-71
2021/05/18 05:01:39;;;;;;;0.33;0.13;;;10.00;99.90;;;;;;5001310;28;20228;-68
2021/05/18 05:04:17;;;;;;;0.77;0.53;;;10.00;99.90;;;;;;5002632;28;20205;-67
2021/05/18 05:06:52;;;;;;;1.43;1.33;;;10.00;99.90;;;;;;5002391;28;20205;-68
2021/05/18 05:09:23;;;;;;;0.93;0.30;;;10.10;99.90;;;;;;5004444;28;20299;-67
2021/05/18 05:14:34;;;;;;;0.10;0.10;;;10.20;99.90;;;;;;4994790;28;20210;-68
2021/05/18 05:17:01;;;;;;;0.40;0.40;;;10.30;99.90;;;;;;4998874;28;20204;-69
2021/05/18 05:19:28;;;;;;;2.07;1.87;;;10.40;99.90;;;;;;5002399;28;20689;-68
2021/05/18 05:21:55;;;;;;;0.07;0.07;;;10.60;99.90;;;;;;5003326;28;20248;-69
2021/05/18 05:24:22;;;;;;;0.00;0.00;;;10.80;99.90;;;;;;5000516;28;20205;-69
2021/05/18 05:26:50;;;;;;;0.50;0.43;;;11.10;99.90;;;;;;5003322;28;20200;-71
2021/05/18 05:29:17;;;;;;;2.33;0.57;;;11.30;99.90;;;;;;5002437;28;20193;-67
2021/05/18 05:31:44;;;;;;;1.73;1.13;;;11.40;99.90;;;;;;5001910;28;20298;-69
2021/05/18 05:34:12;;;;;;;0.10;0.10;;;11.60;99.90;;;;;;5002576;28;20211;-68
2021/05/18 05:36:39;;;;;;;1.10;0.27;;;11.70;99.90;;;;;;5001916;28;20209;-69
2021/05/18 05:39:09;;;;;;;0.30;0.30;;;11.90;99.90;;;;;;5003184;28;20229;-68
2021/05/18 05:41:36;;;;;;;2.73;2.00;;;12.10;99.90;;;;;;5002957;28;20227;-68
2021/05/18 05:44:04;;;;;;;0.40;0.40;;;12.30;99.90;;;;;;5001874;28;20200;-70
2021/05/18 05:46:31;;;;;;;0.17;0.17;;;12.70;99.90;;;;;;5001486;28;20963;-69
2021/05/18 05:48:57;;;;;;;0.23;0.23;;;13.30;99.90;;;;;;5003628;28;20256;-68
2021/05/18 05:51:26;;;;;;;2.03;1.93;;;13.70;99.90;;;;;;5004378;28;20203;-68
2021/05/18 05:53:53;;;;;;;0.00;0.00;;;14.00;99.90;;;;;;5005726;28;20197;-70
2021/05/18 05:56:20;;;;;;;0.43;0.30;;;13.90;99.90;;;;;;5006677;28;20212;-70
2021/05/18 05:58:48;;;;;;;0.20;0.20;;;13.90;99.90;;;;;;5000849;28;20208;-69
2021/05/18 06:01:16;;;;;;;0.90;0.83;;;13.90;99.90;;;;;;5005507;28;20919;-70
2021/05/18 06:03:43;;;;;;;0.30;0.20;;;14.10;99.90;;;;;;5007567;28;20226;-68
2021/05/18 06:06:09;;;;;;;1.07;1.07;;;14.50;99.90;;;;;;5005055;28;20239;-68
2021/05/18 06:08:38;;;;;;;0.87;0.83;;;14.70;99.90;;;;;;5007092;28;20197;-69
2021/05/18 06:11:09;;;;;;;2.83;1.37;;;15.10;99.90;;;;;;5006077;28;20205;-69
2021/05/18 06:16:56;;;;;;;0.40;0.40;;;15.10;99.90;;;;;;5005759;28;20204;-70
2021/05/18 06:46:56;;;;;;;2.37;2.13;;;13.70;99.90;;;;;;5003791;28;20212;-73
2021/05/18 06:49:24;;;;;;;1.13;1.03;;;13.50;99.90;;;;;;5001322;28;20221;-71
2021/05/18 06:51:51;;;;;;;0.10;0.10;;;13.60;99.90;;;;;;5006850;28;20208;-68
2021/05/18 06:54:17;;;;;;;0.70;0.70;;;13.70;99.90;;;;;;5009030;28;20208;-70
2021/05/18 06:56:46;;;;;;;0.30;0.13;;;13.80;99.90;;;;;;5008726;28;20193;-67
2021/05/18 07:01:59;;;;;;;0.07;0.03;;;14.70;99.90;;;;;;5009246;28;20220;-68
2021/05/18 07:04:28;;;;;;;0.93;0.67;;;15.00;99.90;;;;;;5007153;28;20208;-71
2021/05/18 07:07:02;;;;;;;0.60;0.60;;;15.20;99.90;;;;;;5008326;28;20746;-68
2021/05/18 07:09:28;;;;;;;0.90;0.30;;;16.10;99.90;;;;;;5007019;28;20193;-68
2021/05/18 07:11:55;;;;;;;0.27;0.27;;;16.50;99.90;;;;;;5008905;28;20200;-67
2021/05/18 07:14:21;;;;;;;0.93;0.87;;;16.60;99.90;;;;;;5007987;28;20204;-68
2021/05/18 07:16:48;;;;;;;0.90;0.90;;;16.10;99.90;;;;;;5003523;28;20686;-69
2021/05/18 07:19:14;;;;;;;0.60;0.60;;;15.60;99.90;;;;;;5005133;28;20204;-69
2021/05/18 07:21:42;;;;;;;1.40;1.30;;;15.60;99.90;;;;;;5000608;28;20713;-68
2021/05/18 07:24:12;;;;;;;0.00;0.00;;;15.60;99.90;;;;;;5001669;28;20231;-68
2021/05/18 07:26:38;;;;;;;0.20;0.20;;;15.60;99.90;;;;;;4999880;28;20235;-69
2021/05/18 07:29:05;;;;;;;0.27;0.23;;;16.40;99.90;;;;;;5005192;28;20205;-70
2021/05/18 07:31:32;;;;;;;1.73;0.80;;;17.30;99.90;;;;;;5003035;28;20233;-68
2021/05/18 07:33:58;;;;;;;0.07;0.07;;;18.00;99.90;;;;;;4999864;28;20209;-69
2021/05/18 07:36:25;;;;;;;1.70;0.93;;;18.30;99.90;;;;;;5005653;28;20278;-68
2021/05/18 07:38:52;;;;;;;1.97;1.63;;;18.00;99.90;;;;;;5005442;28;20201;-68
2021/05/18 07:41:19;;;;;;;0.30;0.30;;;17.70;99.90;;;;;;5006568;28;20204;-68
2021/05/18 07:43:45;;;;;;;0.30;0.30;;;17.20;99.90;;;;;;4999071;28;20256;-69
2021/05/18 07:46:16;;;;;;;0.10;0.10;;;17.60;99.90;;;;;;4999374;28;20209;-68
2021/05/18 07:48:46;;;;;;;0.00;0.00;;;18.70;99.90;;;;;;4998313;28;20201;-71
2021/05/18 07:51:25;;;;;;;0.88;0.75;;;19.50;99.90;;;;;;5004565;28;20203;-70
2021/05/18 07:59:25;;;;;;;2.28;0.57;;;21.20;99.90;;;;;;5003472;28;20297;-70
2021/05/18 08:07:22;;;;;;;0.22;0.22;;;18.60;99.90;;;;;;5006326;28;20240;-69
2021/05/18 08:09:52;;;;;;;0.60;0.60;;;18.70;99.90;;;;;;5005008;28;20239;-68
2021/05/18 08:12:18;;;;;;;0.00;0.00;;;19.70;99.90;;;;;;5004375;28;20213;-68
2021/05/18 08:14:48;;;;;;;0.00;0.00;;;19.60;99.90;;;;;;4990510;28;20697;-70
2021/05/18 08:17:19;;;;;;;0.03;0.03;;;19.30;99.90;;;;;;5002258;28;20202;-70
2021/05/18 08:23:12;;;;;;;0.10;0.10;;;18.50;99.90;;;;;;5001227;28;20216;-68
2021/05/18 09:33:44;;;;;;;0.00;0.00;;;18.90;99.90;;;;;;5007232;28;20772;-66
2021/05/18 10:34:51;;;;;;;0.00;0.00;;;17.40;99.90;;;;;;5011965;28;20607;-67
2021/05/18 10:37:31;;;;;;;0.23;0.23;;;18.20;99.90;;;;;;5011312;28;20235;-67
2021/05/18 10:40:27;;;;;;;0.25;0.25;;;19.40;99.90;;;;;;4998970;28;20205;-67
2021/05/18 10:43:28;;;;;;;0.00;0.00;;;21.20;99.90;;;;;;5010153;28;20271;-71
2021/05/18 10:46:22;;;;;;;0.00;0.00;;;21.90;99.90;;;;;;5007573;28;20259;-67
2021/05/18 10:49:11;;;;;;;0.00;0.00;;;22.30;99.90;;;;;;5010878;28;20208;-67
2021/05/18 10:51:52;;;;;;;0.82;0.17;;;22.30;99.90;;;;;;5010990;28;20288;-67
2021/05/18 10:54:33;;;;;;;0.30;0.17;;;22.20;99.90;;;;;;5008712;28;20263;-67
2021/05/18 10:57:19;;;;;;;0.77;0.45;;;22.20;99.90;;;;;;5001818;28;20212;-69
2021/05/18 10:59:57;;;;;;;0.00;0.00;;;21.60;99.90;;;;;;4996499;28;20232;-66
2021/05/18 11:02:29;;;;;;;0.15;0.00;;;21.20;99.90;;;;;;5005510;28;20240;-66
2021/05/18 11:04:59;;;;;;;0.00;0.00;;;21.00;99.90;;;;;;5007120;28;20279;-68
2021/05/18 11:07:35;;;;;;;0.10;0.10;;;21.10;99.90;;;;;;5006415;28;20267;-66
2021/05/18 11:10:04;;;;;;;0.20;0.20;;;21.30;99.90;;;;;;5004347;28;21219;-67
2021/05/18 11:12:31;;;;;;;0.00;0.00;;;21.90;99.90;;;;;;5007259;28;20220;-67
2021/05/18 11:15:13;;;;;;;0.00;0.00;;;22.50;99.90;;;;;;5005946;28;20217;-68
2021/05/18 11:17:41;;;;;;;0.28;0.25;;;22.50;99.90;;;;;;5002405;28;20197;-67
2021/05/18 11:20:13;;;;;;;0.00;0.00;;;21.40;99.90;;;;;;5006001;28;20701;-68
2021/05/18 11:25:37;;;;;;;0.68;0.10;;;21.20;99.90;;;;;;5004430;28;20258;-68
2021/05/18 11:28:10;;;;;;;3.40;0.57;;;22.00;99.90;;;;;;5001499;28;20204;-67
2021/05/18 11:30:37;;;;;;;0.00;0.00;;;22.10;99.90;;;;;;5004204;28;20264;-67
2021/05/18 11:33:04;;;;;;;0.00;0.00;;;22.00;99.90;;;;;;5008126;28;20201;-67
2021/05/18 11:35:31;;;;;;;0.00;0.00;;;21.70;99.90;;;;;;5008768;28;20744;-68
2021/05/18 11:38:00;;;;;;;0.00;0.00;;;21.10;99.90;;;;;;5005653;28;20201;-68
2021/05/18 11:40:26;;;;;;;0.00;0.00;;;20.60;99.90;;;;;;5003096;28;20223;-67
2021/05/18 11:42:53;;;;;;;0.03;0.03;;;20.30;99.90;;;;;;5005607;28;20232;-68
2021/05/18 11:45:22;;;;;;;0.03;0.03;;;20.60;99.90;;;;;;5004667;28;20427;-67
2021/05/18 11:47:51;;;;;;;0.00;0.00;;;20.30;99.90;;;;;;5002844;28;20209;-66
2021/05/18 11:50:23;;;;;;;0.15;0.15;;;20.30;99.90;;;;;;5002027;28;20213;-67
2021/05/18 11:52:51;;;;;;;0.03;0.03;;;20.60;99.90;;;;;;5006809;28;20212;-69
2021/05/18 11:55:24;;;;;;;0.10;0.10;;;20.70;99.90;;;;;;5006538;28;20193;-67
2021/05/18 11:57:52;;;;;;;0.08;0.05;;;20.50;99.90;;;;;;5004036;28;20208;-68
2021/05/18 12:00:32;;;;;;;0.13;0.13;;;20.60;99.90;;;;;;5006279;28;20201;-67
2021/05/18 12:03:10;;;;;;;0.00;0.00;;;20.60;99.90;;;;;;5004988;28;20755;-68
2021/05/18 12:05:52;;;;;;;0.00;0.00;;;20.60;99.90;;;;;;5006785;28;20205;-68
2021/05/18 12:08:26;;;;;;;0.13;0.13;;;20.40;99.90;;;;;;5004914;28;20570;-68
2021/05/18 12:10:53;;;;;;;0.10;0.10;;;20.60;99.90;;;;;;5003215;28;20227;-68
2021/05/18 12:13:30;;;;;;;0.00;0.00;;;20.70;99.90;;;;;;5003946;28;20204;-67
2021/05/18 12:16:02;;;;;;;0.00;0.00;;;21.40;99.90;;;;;;5002647;28;20224;-67
2021/05/18 12:18:31;;;;;;;0.00;0.00;;;22.40;99.90;;;;;;5004546;28;20271;-67
2021/05/18 12:21:02;;;;;;;0.10;0.10;;;22.60;99.90;;;;;;5005079;28;20259;-67
2021/05/18 12:23:28;;;;;;;0.20;0.20;;;22.60;99.90;;;;;;5003899;28;20237;-67
2021/05/18 12:26:15;;;;;;;0.38;0.32;;;22.20;99.90;;;;;;5005655;28;20292;-66
2021/05/18 12:28:56;;;;;;;0.00;0.00;;;22.50;99.90;;;;;;5004134;28;20302;-68
2021/05/18 12:31:32;;;;;;;0.45;0.30;;;22.30;99.90;;;;;;5002113;28;22092;-68
2021/05/18 12:33:59;;;;;;;0.00;0.00;;;22.10;99.90;;;;;;5005977;28;20254;-71
2021/05/18 12:36:27;;;;;;;0.20;0.20;;;22.90;99.90;;;;;;5007580;28;20235;-71
2021/05/18 12:39:07;;;;;;;0.10;0.10;;;22.60;99.90;;;;;;5008614;28;20271;-70
2021/05/18 12:41:47;;;;;;;0.00;0.00;;;22.40;99.90;;;;;;5008729;28;20208;-70
2021/05/18 12:44:14;;;;;;;0.05;0.05;;;23.10;99.90;;;;;;5007268;28;20654;-71
2021/05/18 12:46:56;;;;;;;0.00;0.00;;;23.00;99.90;;;;;;5007902;28;20267;-67
2021/05/18 12:49:31;;;;;;;0.15;0.10;;;22.60;99.90;;;;;;5007256;28;20200;-68
2021/05/18 12:52:09;;;;;;;0.00;0.00;;;22.60;99.90;;;;;;5006007;28;20204;-68
2021/05/18 12:54:44;;;;;;;0.00;0.00;;;23.10;99.90;;;;;;5002598;28;20262;-68
2021/05/18 12:57:12;;;;;;;0.00;0.00;;;23.70;99.90;;;;;;5001576;28;20201;-68
2021/05/18 13:00:09;;;;;;;0.00;0.00;;;24.40;99.90;;;;;;5007686;28;20213;-67
2021/05/18 13:02:39;;;;;;;0.00;0.00;;;23.80;99.90;;;;;;4998534;28;20234;-70
2021/05/18 13:05:16;;;;;;;0.00;0.00;;;23.00;99.90;;;;;;5011595;28;20200;-67
2021/05/18 13:07:44;;;;;;;0.00;0.00;;;23.20;99.90;;;;;;5006594;28;20197;-68
2021/05/18 13:10:18;;;;;;;0.28;0.22;;;23.40;99.90;;;;;;5004017;28;20209;-69
2021/05/18 13:12:45;;;;;;;0.05;0.05;;;23.80;99.90;;;;;;5009624;28;20303;-68
2021/05/18 13:15:12;;;;;;;0.00;0.00;;;23.60;99.90;;;;;;5001818;28;20232;-68
2021/05/18 13:17:53;;;;;;;0.70;0.52;;;23.00;99.90;;;;;;5002600;28;20205;-67
2021/05/18 13:20:20;;;;;;;0.00;0.00;;;22.80;99.90;;;;;;5004128;28;20200;-68
2021/05/18 13:22:51;;;;;;;0.00;0.00;;;22.50;99.90;;;;;;5004498;28;20595;-68
2021/05/18 13:28:03;;;;;;;0.03;0.03;;;21.80;99.90;;;;;;5004876;28;20299;-68
2021/05/18 13:30:31;;;;;;;0.05;0.03;;;21.50;99.90;;;;;;5005994;28;20224;-68
2021/05/18 13:32:59;;;;;;;0.00;0.00;;;21.30;99.90;;;;;;5005189;28;20197;-68
2021/05/18 13:35:29;;;;;;;0.00;0.00;;;21.70;99.90;;;;;;5002296;28;20251;-68
2021/05/18 13:37:55;;;;;;;0.00;0.00;;;21.90;99.90;;;;;;5004037;28;20653;-67
2021/05/18 13:40:24;;;;;;;0.20;0.13;;;22.50;99.90;;;;;;5005963;28;20207;-68
2021/05/18 13:42:52;;;;;;;0.35;0.35;;;22.70;99.90;;;;;;5003009;28;20244;-69
2021/05/18 13:45:20;;;;;;;0.00;0.00;;;22.50;99.90;;;;;;5003309;28;20200;-68
2021/05/18 13:47:47;;;;;;;0.00;0.00;;;23.20;99.90;;;;;;5004919;28;20563;-68
2021/05/18 13:50:15;;;;;;;0.00;0.00;;;22.40;99.90;;;;;;5003117;28;20208;-69
2021/05/18 13:52:41;;;;;;;0.00;0.00;;;22.60;99.90;;;;;;5005180;28;20205;-68
2021/05/18 13:55:09;;;;;;;0.35;0.35;;;23.10;99.90;;;;;;5008470;28;20212;-69
2021/05/18 13:57:36;;;;;;;0.10;0.10;;;22.90;99.90;;;;;;5007127;28;20205;-69
2021/05/18 14:00:08;;;;;;;0.25;0.25;;;21.80;99.90;;;;;;5008267;28;20594;-68
2021/05/18 14:02:36;;;;;;;0.20;0.20;;;21.20;99.90;;;;;;5012758;28;20240;-69
2021/05/18 14:05:03;;;;;;;0.30;0.10;;;21.30;99.90;;;;;;5009535;28;20690;-69
2021/05/18 14:08:23;;;;;;;0.30;0.30;;;20.60;99.90;;;;;;5007117;28;20209;-69
2021/05/18 14:10:56;;;;;;;0.00;0.00;;;20.40;99.90;;;;;;5007626;28;20216;-70
2021/05/18 14:13:23;;;;;;;0.10;0.05;;;20.80;99.90;;;;;;5006233;28;20839;-68
2021/05/18 14:15:50;;;;;;;0.35;0.35;;;21.20;99.90;;;;;;5006941;28;20232;-68
2021/05/18 14:18:17;;;;;;;0.00;0.00;;;21.30;99.90;;;;;;5006052;28;20201;-68
2021/05/18 14:20:44;;;;;;;0.15;0.15;;;21.20;99.90;;;;;;5004604;28;20562;-69
2021/05/18 14:23:12;;;;;;;3.10;2.42;;;21.00;99.90;;;;;;5005935;28;20255;-69
2021/05/18 14:25:39;;;;;;;0.00;0.00;;;20.50;99.90;;;;;;5009078;28;20201;-68
2021/05/18 14:28:06;;;;;;;0.52;0.50;;;20.70;99.90;;;;;;5008250;28;20259;-70
2021/05/18 14:30:33;;;;;;;0.13;0.13;;;21.00;99.90;;;;;;5007315;28;20571;-70
2021/05/18 14:33:00;;;;;;;0.00;0.00;;;20.60;99.90;;;;;;4990545;28;20668;-70
2021/05/18 14:35:28;;;;;;;0.17;0.17;;;20.60;99.90;;;;;;5002254;28;20209;-71
2021/05/18 14:37:58;;;;;;;0.10;0.10;;;20.90;99.90;;;;;;5004288;28;20292;-71
2021/05/18 14:40:51;;;;;;;0.17;0.10;;;21.10;99.90;;;;;;5007445;28;20220;-73
2021/05/18 14:46:09;;;;;;;0.10;0.10;;;21.00;99.90;;;;;;5008764;28;20256;-73
2021/05/18 14:54:27;;;;;;;0.00;0.00;;;20.90;99.90;;;;;;5004131;28;20292;-73
2021/05/18 14:56:55;;;;;;;0.00;0.00;;;21.40;99.90;;;;;;5009778;28;20227;-73
2021/05/18 14:59:22;;;;;;;0.40;0.30;;;21.80;99.90;;;;;;5008399;28;20208;-72
2021/05/18 15:01:49;;;;;;;0.00;0.00;;;21.70;99.90;;;;;;5010141;28;20216;-72
2021/05/18 15:04:15;;;;;;;0.00;0.00;;;21.30;99.90;;;;;;5014780;28;20256;-73
2021/05/18 15:06:42;;;;;;;0.00;0.00;;;21.80;99.90;;;;;;5003150;28;20205;-72
2021/05/18 15:09:09;;;;;;;0.00;0.00;;;22.20;99.90;;;;;;5007334;28;21190;-71
2021/05/18 15:11:35;;;;;;;0.00;0.00;;;22.20;99.90;;;;;;5006619;28;20201;-73
2021/05/18 15:14:04;;;;;;;0.00;0.00;;;22.60;99.90;;;;;;5007600;28;20216;-72
2021/05/18 15:16:30;;;;;;;0.08;0.00;;;22.30;99.90;;;;;;5003390;28;20211;-72
2021/05/18 15:19:03;;;;;;;0.00;0.00;;;22.30;99.90;;;;;;5010556;28;20209;-72
2021/05/18 15:21:30;;;;;;;0.10;0.10;;;22.00;99.90;;;;;;5010256;28;20245;-72
2021/05/18 15:23:57;;;;;;;0.10;0.10;;;22.20;99.90;;;;;;5011825;28;20262;-72
2021/05/18 15:26:23;;;;;;;0.00;0.00;;;22.20;99.90;;;;;;5009597;28;20208;-73
2021/05/18 15:28:50;;;;;;;0.20;0.20;;;22.40;99.90;;;;;;5011018;28;20201;-72
2021/05/18 15:31:17;;;;;;;0.00;0.00;;;22.00;99.90;;;;;;5010092;28;20236;-73
2021/05/18 15:33:44;;;;;;;0.40;0.00;;;22.00;99.90;;;;;;5009337;28;20200;-71
2021/05/18 15:36:10;;;;;;;0.00;0.00;;;22.00;99.90;;;;;;5008629;28;20212;-72
2021/05/18 15:38:38;;;;;;;0.00;0.00;;;21.50;99.90;;;;;;5010199;28;20197;-71
2021/05/18 15:41:07;;;;;;;0.28;0.28;;;21.60;99.90;;;;;;5010634;28;20205;-71
2021/05/18 15:43:34;;;;;;;0.05;0.05;;;21.90;99.90;;;;;;5008690;28;20270;-72
2021/05/18 15:46:01;;;;;;;0.00;0.00;;;21.80;99.90;;;;;;5010292;28;20304;-72
2021/05/18 15:48:28;;;;;;;0.00;0.00;;;21.60;99.90;;;;;;5009956;28;20211;-71
2021/05/18 15:50:55;;;;;;;0.20;0.20;;;21.70;99.90;;;;;;5010768;28;20201;-71
2021/05/18 15:53:21;;;;;;;0.00;0.00;;;21.20;99.90;;;;;;5006643;28;20701;-69
2021/05/18 15:55:48;;;;;;;0.00;0.00;;;21.40;99.90;;;;;;5010868;28;20208;-72
2021/05/18 15:58:14;;;;;;;0.00;0.00;;;21.60;99.90;;;;;;5008210;28;20201;-71
2021/05/18 16:00:42;;;;;;;0.13;0.13;;;21.70;99.90;;;;;;5009788;28;20209;-70
2021/05/18 16:03:08;;;;;;;0.00;0.00;;;21.90;99.90;;;;;;5017979;28;20279;-71
2021/05/18 16:05:36;;;;;;;0.00;0.00;;;21.90;99.90;;;;;;5006505;28;20196;-71
2021/05/18 16:08:09;;;;;;;0.00;0.00;;;21.80;99.90;;;;;;5006747;28;20320;-70
2021/05/18 16:10:35;;;;;;;0.00;0.00;;;21.80;99.90;;;;;;5005629;28;20738;-70
2021/05/18 16:13:02;;;;;;;0.00;0.00;;;21.70;99.90;;;;;;5006942;28;20217;-72
2021/05/18 16:15:28;;;;;;;1.17;0.32;;;21.30;99.90;;;;;;5005127;28;20197;-70
2021/05/18 16:17:55;;;;;;;0.10;0.10;;;20.70;99.90;;;;;;5005141;28;20204;-70
2021/05/18 16:20:21;;;;;;;2.53;1.20;;;20.00;99.90;;;;;;5004118;28;20213;-71
2021/05/18 16:22:49;;;;;;;0.33;0.33;;;19.80;99.90;;;;;;5002415;28;20236;-73
2021/05/18 16:25:15;;;;;;;0.00;0.00;;;19.30;99.90;;;;;;5005587;28;20197;-70
2021/05/18 16:27:42;;;;;;;0.00;0.00;;;19.10;99.90;;;;;;5005148;28;20223;-71
2021/05/18 16:30:09;;;;;;;0.10;0.10;;;19.00;99.90;;;;;;5008305;28;20295;-70
2021/05/18 16:32:36;;;;;;;0.10;0.10;;;18.90;99.90;;;;;;5015101;28;20208;-71
2021/05/18 16:35:03;;;;;;;0.00;0.00;;;18.80;99.90;;;;;;5001207;28;20205;-71
2021/05/18 16:37:30;;;;;;;0.00;0.00;;;18.60;99.90;;;;;;5001772;28;20237;-70
2021/05/18 16:39:57;;;;;;;0.00;0.00;;;18.50;99.90;;;;;;5002853;28;20205;-70
2021/05/18 16:42:24;;;;;;;0.00;0.00;;;18.10;99.90;;;;;;5004479;28;20690;-71
2021/05/18 16:44:50;;;;;;;0.00;0.00;;;18.00;99.90;;;;;;5001744;28;20233;-69
2021/05/18 16:47:17;;;;;;;0.20;0.10;;;18.00;99.90;;;;;;5003192;28;20231;-69
2021/05/18 16:49:44;;;;;;;0.00;0.00;;;17.50;99.90;;;;;;5001674;28;20204;-69
2021/05/18 16:52:10;;;;;;;0.00;0.00;;;17.40;99.90;;;;;;5003249;28;20212;-70
2021/05/18 16:54:37;;;;;;;0.00;0.00;;;17.30;99.90;;;;;;5003635;28;20208;-72
2021/05/18 16:57:05;;;;;;;0.00;0.00;;;17.40;99.90;;;;;;5002738;28;20235;-71
2021/05/18 16:59:31;;;;;;;0.00;0.00;;;17.50;99.90;;;;;;4999724;28;20201;-71
2021/05/18 17:01:58;;;;;;;0.00;0.00;;;17.40;99.90;;;;;;5004011;28;20263;-71
2021/05/18 17:04:24;;;;;;;0.10;0.10;;;16.80;99.90;;;;;;5005694;28;20231;-71
2021/05/18 17:06:51;;;;;;;0.00;0.00;;;16.60;99.90;;;;;;5003890;28;20197;-69
2021/05/18 17:09:18;;;;;;;0.00;0.00;;;16.30;99.90;;;;;;4998435;28;20707;-70
2021/05/18 17:11:45;;;;;;;0.13;0.13;;;16.10;99.90;;;;;;5002969;28;20205;-69
2021/05/18 17:14:13;;;;;;;0.27;0.27;;;16.00;99.90;;;;;;5002084;28;20228;-70
2021/05/18 17:16:40;;;;;;;0.77;0.47;;;15.80;99.90;;;;;;5002275;28;20604;-70
2021/05/18 17:19:07;;;;;;;0.73;0.20;;;15.80;99.90;;;;;;4990998;28;20207;-70
2021/05/18 17:21:35;;;;;;;0.00;0.00;;;15.80;99.90;;;;;;4994923;28;20201;-70